createdAt,value
2023-08-30T00:01:12.627Z,12.30
2023-08-30T00:03:41.139Z,12.30
2023-08-30T00:06:12.924Z,12.30
2023-08-30T00:08:41.142Z,12.30
2023-08-30T00:11:09.404Z,12.30
2023-08-30T00:13:39.052Z,12.30
2023-08-30T00:16:07.923Z,12.30
2023-08-30T00:18:36.276Z,12.30
2023-08-30T00:21:04.561Z,12.30
2023-08-30T00:23:32.845Z,12.40
2023-08-30T00:26:01.104Z,12.40
2023-08-30T00:28:29.370Z,12.30
2023-08-30T00:30:59.062Z,12.30
2023-08-30T00:33:27.360Z,12.30
2023-08-30T00:35:59.793Z,12.30
2023-08-30T00:38:30.318Z,12.40
2023-08-30T00:40:58.647Z,12.40
2023-08-30T00:43:26.916Z,12.40
2023-08-30T00:45:55.486Z,12.40
2023-08-30T00:48:25.231Z,12.40
2023-08-30T00:50:53.819Z,12.40
2023-08-30T00:53:22.122Z,12.40
2023-08-30T00:55:50.479Z,12.40
2023-08-30T00:58:19.025Z,12.40
2023-08-30T01:00:48.312Z,12.40
2023-08-30T01:03:18.234Z,12.40
2023-08-30T01:05:48.006Z,12.40
2023-08-30T01:08:16.774Z,12.40
2023-08-30T01:10:55.510Z,12.40
2023-08-30T01:13:24.024Z,12.40
2023-08-30T01:15:56.247Z,12.40
2023-08-30T01:18:28.724Z,12.40
2023-08-30T01:20:59.604Z,12.40
2023-08-30T01:23:42.612Z,12.40
2023-08-30T01:26:16.015Z,12.40
2023-08-30T01:28:46.336Z,12.40
2023-08-30T01:31:15.401Z,12.40
2023-08-30T01:33:44.798Z,12.50
2023-08-30T01:36:13.617Z,12.50
2023-08-30T01:38:42.321Z,12.40
2023-08-30T01:41:10.712Z,12.40
2023-08-30T01:43:39.394Z,12.40
2023-08-30T01:46:09.627Z,12.40
2023-08-30T01:48:38.482Z,12.40
2023-08-30T01:51:07.401Z,12.40
2023-08-30T01:53:36.464Z,12.40
2023-08-30T01:56:04.962Z,12.40
2023-08-30T01:58:33.227Z,12.30
2023-08-30T02:01:02.981Z,12.30
2023-08-30T02:03:32.748Z,12.40
2023-08-30T02:06:10.040Z,12.40
2023-08-30T02:08:42.929Z,12.40
2023-08-30T02:11:19.309Z,12.40
2023-08-30T02:13:48.964Z,12.40
2023-08-30T02:16:19.845Z,12.40
2023-08-30T02:18:51.051Z,12.40
2023-08-30T02:21:19.682Z,12.40
2023-08-30T02:23:52.264Z,12.40
2023-08-30T02:26:21.679Z,12.30
2023-08-30T02:28:50.216Z,12.30
2023-08-30T02:31:18.570Z,12.30
2023-08-30T02:33:46.860Z,12.20
2023-08-30T02:36:16.490Z,12.20
2023-08-30T02:38:44.671Z,12.20
2023-08-30T02:41:13.586Z,12.20
2023-08-30T02:43:41.803Z,12.20
2023-08-30T02:46:10.146Z,12.20
2023-08-30T02:48:38.406Z,12.20
2023-08-30T02:51:06.607Z,12.20
2023-08-30T02:53:36.237Z,12.20
2023-08-30T02:56:04.704Z,12.20
2023-08-30T02:58:34.442Z,12.20
2023-08-30T03:01:03.982Z,12.10
2023-08-30T03:03:32.389Z,12.10
2023-08-30T03:06:00.657Z,12.00
2023-08-30T03:08:28.904Z,12.10
2023-08-30T03:10:58.533Z,12.10
2023-08-30T03:13:26.816Z,12.20
2023-08-30T03:15:55.085Z,12.20
2023-08-30T03:18:23.331Z,12.20
2023-08-30T03:21:01.457Z,12.20
2023-08-30T03:23:29.722Z,12.20
2023-08-30T03:25:59.376Z,12.10
2023-08-30T03:28:28.576Z,12.10
2023-08-30T03:30:56.875Z,12.20
2023-08-30T03:33:25.121Z,12.20
2023-08-30T03:35:53.413Z,12.20
2023-08-30T03:38:21.649Z,12.20
2023-08-30T03:40:54.844Z,12.20
2023-08-30T03:43:24.471Z,12.20
2023-08-30T03:45:53.551Z,12.10
2023-08-30T03:48:21.826Z,12.10
2023-08-30T03:50:50.096Z,12.10
2023-08-30T03:53:18.352Z,12.10
2023-08-30T03:55:46.601Z,12.10
2023-08-30T03:58:14.854Z,12.10
2023-08-30T04:00:44.588Z,12.10
2023-08-30T04:03:13.122Z,12.10
2023-08-30T04:05:41.453Z,12.10
2023-08-30T04:08:10.212Z,12.10
2023-08-30T04:10:39.365Z,12.10
2023-08-30T04:13:08.790Z,12.10
2023-08-30T04:15:37.458Z,12.10
2023-08-30T04:18:08.854Z,12.00
2023-08-30T04:20:37.388Z,12.10
2023-08-30T04:23:05.871Z,12.20
2023-08-30T04:25:36.815Z,12.20
2023-08-30T04:28:05.719Z,12.20
2023-08-30T04:30:34.434Z,12.20
2023-08-30T04:33:04.419Z,12.20
2023-08-30T04:35:34.597Z,12.20
2023-08-30T04:38:04.276Z,12.20
2023-08-30T04:40:33.290Z,12.20
2023-08-30T04:43:01.803Z,12.40
2023-08-30T04:45:30.889Z,12.20
2023-08-30T04:47:59.301Z,12.20
2023-08-30T04:50:27.622Z,12.10
2023-08-30T04:52:57.232Z,12.10
2023-08-30T04:55:26.835Z,12.10
2023-08-30T04:57:55.098Z,12.20
2023-08-30T05:00:23.598Z,12.20
2023-08-30T05:02:51.873Z,12.20
2023-08-30T05:05:20.268Z,12.20
2023-08-30T05:07:48.535Z,12.20
2023-08-30T05:10:18.279Z,12.20
2023-08-30T05:12:50.869Z,12.40
2023-08-30T05:15:19.168Z,12.20
2023-08-30T05:17:47.418Z,12.20
2023-08-30T05:20:15.811Z,12.30
2023-08-30T05:22:44.042Z,12.30
2023-08-30T05:25:12.340Z,12.30
2023-08-30T05:27:41.956Z,12.30
2023-08-30T05:30:10.979Z,12.40
2023-08-30T05:32:39.269Z,12.40
2023-08-30T05:35:08.099Z,12.40
2023-08-30T05:37:36.367Z,12.40
2023-08-30T05:40:05.152Z,12.40
2023-08-30T05:42:33.519Z,12.40
2023-08-30T05:45:04.431Z,12.40
2023-08-30T05:47:33.267Z,12.40
2023-08-30T05:50:01.500Z,12.40
2023-08-30T05:52:29.779Z,12.40
2023-08-30T05:54:58.025Z,12.40
2023-08-30T05:57:26.773Z,12.50
2023-08-30T05:59:55.047Z,12.50
2023-08-30T06:02:24.772Z,12.50
2023-08-30T06:04:53.068Z,12.60
2023-08-30T06:07:21.290Z,12.70
2023-08-30T06:09:50.511Z,12.70
2023-08-30T06:12:19.072Z,12.80
2023-08-30T06:14:53.038Z,12.80
2023-08-30T06:17:22.032Z,12.90
2023-08-30T06:19:51.836Z,13.00
2023-08-30T06:22:20.134Z,13.10
2023-08-30T06:24:48.407Z,13.10
2023-08-30T06:27:16.732Z,13.20
2023-08-30T06:29:44.963Z,13.40
2023-08-30T06:32:13.258Z,13.50
2023-08-30T06:34:41.550Z,13.70
2023-08-30T06:37:11.217Z,13.90
2023-08-30T06:39:39.482Z,14.10
2023-08-30T06:42:08.518Z,14.40
2023-08-30T06:44:36.912Z,14.60
2023-08-30T06:47:05.372Z,14.70
2023-08-30T06:49:33.837Z,14.90
2023-08-30T06:52:04.335Z,15.00
2023-08-30T06:54:36.859Z,15.30
2023-08-30T06:57:07.146Z,15.50
2023-08-30T06:59:35.432Z,15.60
2023-08-30T07:02:03.809Z,15.70
2023-08-30T07:04:32.127Z,15.80
2023-08-30T07:07:00.392Z,15.80
2023-08-30T07:09:30.833Z,15.80
2023-08-30T07:12:00.894Z,15.90
2023-08-30T07:14:29.137Z,16.00
2023-08-30T07:16:57.447Z,16.20
2023-08-30T07:19:25.740Z,16.50
2023-08-30T07:21:53.997Z,16.80
2023-08-30T07:24:23.804Z,16.90
2023-08-30T07:26:52.167Z,17.20
2023-08-30T07:29:21.852Z,17.30
2023-08-30T07:31:52.620Z,17.60
2023-08-30T07:34:20.983Z,18.60
2023-08-30T07:36:49.343Z,19.10
2023-08-30T07:39:17.662Z,19.40
2023-08-30T07:41:45.948Z,20.40
2023-08-30T07:44:14.236Z,21.70
2023-08-30T07:46:43.927Z,23.20
2023-08-30T07:49:12.143Z,24.10
2023-08-30T07:51:40.362Z,24.40
2023-08-30T07:54:08.711Z,24.30
2023-08-30T07:56:37.028Z,23.80
2023-08-30T07:59:05.549Z,24.60
2023-08-30T08:01:33.800Z,25.80
2023-08-30T08:04:07.865Z,25.30
2023-08-30T08:06:37.656Z,25.10
2023-08-30T08:09:07.093Z,24.90
2023-08-30T08:11:35.345Z,25.30
2023-08-30T08:14:04.438Z,25.20
2023-08-30T08:16:33.737Z,24.90
2023-08-30T08:19:03.834Z,24.70
2023-08-30T08:21:32.092Z,24.40
2023-08-30T08:24:00.318Z,23.80
2023-08-30T08:26:28.651Z,23.90
2023-08-30T08:28:57.243Z,23.30
2023-08-30T08:31:25.679Z,22.90
2023-08-30T08:34:09.139Z,23.50
2023-08-30T08:36:39.706Z,24.50
2023-08-30T08:39:08.364Z,25.10
2023-08-30T08:41:42.217Z,25.30
2023-08-30T08:44:10.956Z,25.50
2023-08-30T08:46:40.259Z,26.80
2023-08-30T08:49:11.857Z,27.30
2023-08-30T08:51:42.251Z,27.00
2023-08-30T08:54:11.388Z,27.20
2023-08-30T08:56:40.232Z,27.50
2023-08-30T08:59:09.924Z,28.00
2023-08-30T09:01:41.062Z,27.00
2023-08-30T09:04:11.181Z,27.40
2023-08-30T09:06:42.439Z,28.30
2023-08-30T09:09:11.367Z,29.40
2023-08-30T09:11:50.780Z,29.90
2023-08-30T09:14:20.345Z,30.70
2023-08-30T09:16:57.394Z,30.70
2023-08-30T09:19:25.872Z,31.10
2023-08-30T09:21:56.351Z,31.50
2023-08-30T09:24:24.949Z,32.50
2023-08-30T09:26:54.964Z,33.20
2023-08-30T09:29:24.527Z,33.60
2023-08-30T09:31:54.703Z,33.60
2023-08-30T09:34:25.186Z,34.00
2023-08-30T09:36:56.577Z,34.50
2023-08-30T09:39:25.035Z,34.70
2023-08-30T09:41:53.672Z,34.80
2023-08-30T09:44:23.332Z,35.40
2023-08-30T09:46:53.851Z,35.80
2023-08-30T09:49:23.073Z,36.10
2023-08-30T09:51:53.695Z,36.80
2023-08-30T09:59:48.185Z,36.80
2023-08-30T10:02:18.252Z,36.80
2023-08-30T10:04:47.359Z,36.90
2023-08-30T10:07:17.447Z,37.30
2023-08-30T10:10:07.292Z,36.90
2023-08-30T10:12:37.362Z,36.50
2023-08-30T10:15:07.202Z,36.70
2023-08-30T10:17:36.427Z,36.80
2023-08-30T10:20:08.268Z,36.30
2023-08-30T10:22:39.429Z,36.60
2023-08-30T10:25:12.530Z,36.30
2023-08-30T10:27:43.990Z,36.80
2023-08-30T10:30:13.625Z,36.70
2023-08-30T10:32:42.448Z,36.60
2023-08-30T10:35:14.501Z,36.40
2023-08-30T10:37:43.367Z,36.90
2023-08-30T10:40:13.098Z,36.90
2023-08-30T10:42:42.058Z,37.00
2023-08-30T10:45:14.144Z,37.10
2023-08-30T10:47:43.160Z,37.20
2023-08-30T10:50:13.247Z,37.00
2023-08-30T10:52:41.870Z,37.20
2023-08-30T10:55:13.091Z,37.10
2023-08-30T10:57:45.602Z,37.40
2023-08-30T11:00:22.438Z,37.40
2023-08-30T11:02:52.162Z,37.10
2023-08-30T11:05:23.556Z,37.40
2023-08-30T11:07:52.760Z,37.40
2023-08-30T11:10:23.580Z,37.30
2023-08-30T11:12:52.991Z,37.20
2023-08-30T11:15:22.000Z,36.70
2023-08-30T11:17:50.799Z,36.50
2023-08-30T11:20:21.332Z,36.00
2023-08-30T11:22:50.964Z,35.40
2023-08-30T11:25:19.525Z,34.40
2023-08-30T11:27:49.271Z,33.70
2023-08-30T11:30:17.520Z,32.90
2023-08-30T11:32:46.008Z,32.00
2023-08-30T11:35:14.350Z,31.40
2023-08-30T11:37:43.633Z,31.00
2023-08-30T11:40:14.109Z,30.50
2023-08-30T11:42:43.248Z,30.10
2023-08-30T11:45:13.417Z,29.60
2023-08-30T11:47:42.320Z,29.50
2023-08-30T11:50:13.639Z,29.20
2023-08-30T11:52:42.328Z,29.10
2023-08-30T11:55:11.197Z,29.00
2023-08-30T11:57:39.443Z,28.70
2023-08-30T12:00:14.017Z,28.40
2023-08-30T12:02:42.525Z,28.20
2023-08-30T12:05:13.768Z,27.90
2023-08-30T12:07:42.626Z,27.60
2023-08-30T12:10:12.748Z,27.30
2023-08-30T12:12:46.720Z,27.10
2023-08-30T12:15:17.451Z,26.90
2023-08-30T12:17:45.882Z,27.00
2023-08-30T12:20:18.872Z,27.30
2023-08-30T12:22:47.314Z,27.40
2023-08-30T12:25:19.756Z,27.30
2023-08-30T12:27:48.173Z,27.50
2023-08-30T12:30:18.494Z,27.40
2023-08-30T12:32:47.217Z,27.60
2023-08-30T12:35:15.786Z,27.70
2023-08-30T12:37:44.775Z,28.00
2023-08-30T12:40:13.907Z,28.40
2023-08-30T12:42:42.140Z,28.80
2023-08-30T12:45:11.637Z,29.10
2023-08-30T12:47:41.441Z,29.40
2023-08-30T12:50:10.771Z,29.80
2023-08-30T12:52:39.157Z,30.10
2023-08-30T12:55:07.985Z,30.70
2023-08-30T12:57:36.283Z,30.80
2023-08-30T13:00:05.263Z,30.80
2023-08-30T13:02:33.602Z,30.70
2023-08-30T13:05:03.368Z,30.60
2023-08-30T13:07:32.678Z,30.40
2023-08-30T13:10:02.762Z,30.60
2023-08-30T13:12:31.067Z,30.20
2023-08-30T13:14:59.417Z,29.90
2023-08-30T13:17:27.717Z,29.90
2023-08-30T13:19:56.720Z,29.90
2023-08-30T13:22:27.080Z,29.80
2023-08-30T13:24:55.320Z,29.60
2023-08-30T13:27:23.787Z,29.80
2023-08-30T13:29:52.704Z,29.80
2023-08-30T13:32:21.009Z,29.60
2023-08-30T13:34:49.264Z,29.90
2023-08-30T13:37:17.947Z,30.20
2023-08-30T13:39:48.144Z,30.50
2023-08-30T13:42:16.409Z,30.60
2023-08-30T13:44:45.171Z,30.90
2023-08-30T13:47:13.791Z,30.70
2023-08-30T13:49:42.030Z,30.20
2023-08-30T13:52:10.254Z,30.30
2023-08-30T13:54:38.504Z,30.10
2023-08-30T13:57:08.172Z,30.20
2023-08-30T13:59:37.713Z,30.40
2023-08-30T14:02:06.493Z,30.60
2023-08-30T14:04:37.349Z,30.60
2023-08-30T14:07:05.582Z,30.60
2023-08-30T14:09:33.850Z,30.40
2023-08-30T14:12:02.136Z,30.20
2023-08-30T14:14:32.096Z,30.00
2023-08-30T14:17:00.324Z,30.10
2023-08-30T14:19:28.788Z,30.30
2023-08-30T14:21:59.381Z,30.60
2023-08-30T14:24:27.611Z,30.90
2023-08-30T14:26:55.910Z,30.80
2023-08-30T14:29:24.341Z,30.80
2023-08-30T14:31:54.053Z,30.10
2023-08-30T14:34:22.957Z,29.90
2023-08-30T14:36:51.274Z,29.50
2023-08-30T14:39:19.804Z,29.10
2023-08-30T14:41:48.076Z,29.10
2023-08-30T14:44:16.390Z,29.10
2023-08-30T14:46:44.666Z,28.70
2023-08-30T14:49:14.403Z,28.40
2023-08-30T14:51:42.665Z,28.40
2023-08-30T14:54:10.926Z,28.40
2023-08-30T14:56:39.208Z,28.50
2023-08-30T14:59:07.491Z,28.60
2023-08-30T15:01:36.771Z,28.30
2023-08-30T15:04:05.834Z,27.90
2023-08-30T15:06:35.637Z,27.50
2023-08-30T15:09:04.494Z,27.10
2023-08-30T15:11:32.780Z,26.10
2023-08-30T15:14:01.150Z,25.40
2023-08-30T15:16:29.449Z,24.90
2023-08-30T15:18:57.715Z,24.60
2023-08-30T15:21:26.101Z,24.30
2023-08-30T15:23:55.700Z,24.00
2023-08-30T15:26:24.026Z,23.70
2023-08-30T15:28:52.314Z,23.60
2023-08-30T15:31:20.320Z,23.40
2023-08-30T15:33:48.818Z,23.40
2023-08-30T15:36:17.138Z,23.30
2023-08-30T15:38:46.643Z,23.20
2023-08-30T15:41:16.322Z,22.80
2023-08-30T15:43:44.647Z,22.40
2023-08-30T15:46:14.484Z,22.10
2023-08-30T15:48:44.360Z,22.10
2023-08-30T15:51:23.711Z,21.90
2023-08-30T15:53:53.156Z,21.90
2023-08-30T15:56:23.625Z,21.80
2023-08-30T15:58:52.023Z,21.90
2023-08-30T16:01:21.942Z,22.00
2023-08-30T16:03:50.564Z,21.90
2023-08-30T16:06:18.843Z,21.70
2023-08-30T16:08:47.393Z,21.60
2023-08-30T16:11:15.675Z,21.60
2023-08-30T16:13:45.331Z,21.50
2023-08-30T16:16:13.603Z,21.40
2023-08-30T16:18:41.931Z,21.40
2023-08-30T16:21:10.192Z,21.40
2023-08-30T16:23:39.498Z,21.30
2023-08-30T16:26:07.764Z,21.20
2023-08-30T16:28:37.591Z,21.30
2023-08-30T16:31:09.070Z,21.30
2023-08-30T16:33:37.143Z,21.30
2023-08-30T16:36:05.851Z,21.30
2023-08-30T16:38:34.738Z,21.40
2023-08-30T16:41:05.471Z,21.40
2023-08-30T16:43:33.910Z,21.30
2023-08-30T16:46:03.248Z,21.30
2023-08-30T16:48:33.175Z,21.10
2023-08-30T16:51:01.435Z,20.90
2023-08-30T16:53:29.897Z,20.70
2023-08-30T16:56:01.749Z,20.50
2023-08-30T16:58:29.985Z,20.40
2023-08-30T17:00:58.438Z,20.20
2023-08-30T17:03:26.796Z,20.00
2023-08-30T17:05:57.307Z,19.80
2023-08-30T17:08:25.843Z,19.80
2023-08-30T17:10:54.090Z,19.60
2023-08-30T17:13:22.351Z,19.60
2023-08-30T17:15:50.605Z,19.50
2023-08-30T17:18:18.883Z,19.50
2023-08-30T17:20:47.142Z,19.50
2023-08-30T17:23:16.785Z,19.50
2023-08-30T17:25:45.110Z,19.40
2023-08-30T17:28:13.363Z,19.30
2023-08-30T17:30:41.700Z,19.30
2023-08-30T17:33:10.407Z,19.20
2023-08-30T17:35:39.319Z,19.20
2023-08-30T17:38:08.812Z,19.20
2023-08-30T17:40:38.564Z,19.10
2023-08-30T17:43:08.826Z,19.10
2023-08-30T17:45:37.083Z,19.00
2023-08-30T17:48:05.983Z,18.90
2023-08-30T17:50:34.446Z,18.80
2023-08-30T17:53:03.574Z,18.70
2023-08-30T17:55:31.893Z,18.60
2023-08-30T17:58:01.674Z,18.50
2023-08-30T18:00:29.942Z,18.50
2023-08-30T18:02:58.323Z,18.50
2023-08-30T18:05:26.658Z,18.40
2023-08-30T18:07:57.162Z,18.30
2023-08-30T18:10:26.141Z,18.30
2023-08-30T18:12:54.448Z,18.10
2023-08-30T18:15:24.178Z,18.10
2023-08-30T18:17:53.021Z,18.00
2023-08-30T18:20:21.354Z,17.90
2023-08-30T18:22:49.627Z,17.90
2023-08-30T18:25:18.894Z,17.80
2023-08-30T18:27:47.245Z,17.70
2023-08-30T18:30:15.691Z,17.60
2023-08-30T18:32:46.679Z,17.60
2023-08-30T18:35:15.112Z,17.60
2023-08-30T18:37:44.738Z,17.50
2023-08-30T18:40:13.932Z,17.40
2023-08-30T18:42:42.252Z,17.40
2023-08-30T18:45:11.803Z,17.30
2023-08-30T18:47:40.107Z,17.30
2023-08-30T18:50:13.196Z,17.30
2023-08-30T18:52:41.654Z,17.20
2023-08-30T18:55:11.052Z,17.20
2023-08-30T18:57:39.350Z,17.20
2023-08-30T19:00:11.577Z,17.10
2023-08-30T19:02:40.119Z,17.10
2023-08-30T19:05:10.687Z,17.00
2023-08-30T19:07:38.954Z,17.00
2023-08-30T19:10:09.653Z,16.90
2023-08-30T19:12:37.911Z,16.90
2023-08-30T19:15:09.041Z,16.90
2023-08-30T19:17:37.385Z,16.90
2023-08-30T19:20:06.361Z,16.80
2023-08-30T19:22:36.616Z,16.80
2023-08-30T19:25:05.005Z,16.80
2023-08-30T19:27:33.300Z,16.80
2023-08-30T19:30:01.649Z,16.70
2023-08-30T19:32:29.986Z,16.70
2023-08-30T19:34:58.248Z,16.70
2023-08-30T19:37:28.619Z,16.70
2023-08-30T19:39:58.233Z,16.70
2023-08-30T19:42:26.551Z,16.60
2023-08-30T19:44:58.954Z,16.60
2023-08-30T19:47:28.863Z,16.50
2023-08-30T19:49:57.368Z,16.40
2023-08-30T19:52:26.124Z,16.30
2023-08-30T19:54:55.857Z,16.20
2023-08-30T19:57:25.559Z,16.30
2023-08-30T19:59:55.038Z,16.30
2023-08-30T20:02:23.746Z,16.30
2023-08-30T20:04:53.165Z,16.30
2023-08-30T20:07:21.533Z,16.30
2023-08-30T20:09:49.928Z,16.20
2023-08-30T20:12:18.228Z,16.10
2023-08-30T20:14:47.936Z,16.10
2023-08-30T20:17:16.212Z,16.10
2023-08-30T20:19:44.483Z,16.10
2023-08-30T20:22:12.895Z,16.10
2023-08-30T20:24:41.106Z,16.10
2023-08-30T20:27:09.325Z,16.10
2023-08-30T20:29:37.571Z,16.20
2023-08-30T20:32:07.856Z,16.10
2023-08-30T20:34:36.108Z,16.10
2023-08-30T20:37:04.428Z,16.10
2023-08-30T20:39:32.709Z,16.20
2023-08-30T20:42:03.199Z,16.20
2023-08-30T20:44:32.964Z,16.10
2023-08-30T20:47:01.235Z,16.00
2023-08-30T20:49:30.842Z,16.00
2023-08-30T20:51:59.104Z,15.90
2023-08-30T20:54:27.375Z,15.90
2023-08-30T20:56:55.750Z,15.90
2023-08-30T20:59:24.065Z,15.80
2023-08-30T21:01:52.334Z,15.80
2023-08-30T21:04:20.664Z,15.80
2023-08-30T21:06:50.258Z,15.80
2023-08-30T21:09:18.525Z,15.80
2023-08-30T21:11:46.959Z,15.70
2023-08-30T21:14:15.948Z,15.80
2023-08-30T21:16:44.219Z,15.90
2023-08-30T21:19:12.459Z,15.90
2023-08-30T21:21:40.894Z,16.00
2023-08-30T21:24:12.478Z,16.00
2023-08-30T21:26:40.743Z,16.00
2023-08-30T21:29:09.340Z,16.00
2023-08-30T21:31:37.585Z,16.00
2023-08-30T21:34:06.091Z,15.90
2023-08-30T21:36:34.328Z,15.90
2023-08-30T21:39:02.845Z,15.90
2023-08-30T21:41:32.452Z,15.90
2023-08-30T21:44:00.880Z,15.90
2023-08-30T21:46:29.901Z,15.90
2023-08-30T21:48:58.186Z,15.90
2023-08-30T21:51:28.782Z,16.00
2023-08-30T21:53:57.100Z,16.00
2023-08-30T21:56:25.333Z,16.00
2023-08-30T21:58:55.116Z,16.00
2023-08-30T22:01:23.374Z,16.00
2023-08-30T22:03:53.162Z,16.00
2023-08-30T22:06:21.637Z,16.00
2023-08-30T22:08:50.822Z,16.00
2023-08-30T22:11:20.335Z,15.90
2023-08-30T22:13:48.594Z,16.00
2023-08-30T22:16:18.292Z,16.00
2023-08-30T22:18:48.272Z,16.00
2023-08-30T22:21:17.479Z,15.90
2023-08-30T22:23:45.755Z,15.80
2023-08-30T22:26:13.980Z,15.80
2023-08-30T22:28:42.194Z,15.90
2023-08-30T22:31:10.505Z,15.90
2023-08-30T22:33:40.141Z,15.80
2023-08-30T22:36:09.113Z,15.90
2023-08-30T22:38:37.431Z,15.80
2023-08-30T22:41:05.695Z,15.80
2023-08-30T22:43:33.945Z,15.90
2023-08-30T22:46:03.000Z,15.80
2023-08-30T22:48:31.519Z,15.80
2023-08-30T22:51:05.581Z,15.80
2023-08-30T22:53:34.333Z,15.70
2023-08-30T22:56:03.698Z,15.60
2023-08-30T22:58:32.017Z,15.60
2023-08-30T23:01:03.067Z,15.60
2023-08-30T23:03:31.712Z,15.60
2023-08-30T23:06:00.212Z,15.60
2023-08-30T23:08:30.021Z,15.60
2023-08-30T23:10:58.501Z,15.60
2023-08-30T23:13:26.853Z,15.60
2023-08-30T23:15:55.088Z,15.70
2023-08-30T23:18:23.427Z,15.70
2023-08-30T23:20:51.963Z,15.70
2023-08-30T23:23:21.712Z,15.60
2023-08-30T23:25:51.328Z,15.60
2023-08-30T23:28:19.618Z,15.60
2023-08-30T23:30:48.804Z,15.50
2023-08-30T23:33:17.029Z,15.50
2023-08-30T23:35:45.251Z,15.60
2023-08-30T23:38:13.494Z,15.60
2023-08-30T23:40:41.860Z,15.50
2023-08-30T23:43:12.085Z,15.40
2023-08-30T23:45:40.485Z,15.30
2023-08-30T23:48:08.982Z,15.30
2023-08-30T23:50:37.707Z,15.30
2023-08-30T23:53:07.492Z,15.30
2023-08-30T23:55:35.761Z,15.30
2023-08-30T23:58:05.012Z,15.30
